Time;durP1;ratioP1;P1;durP2;ratioP2;P2;SDS_P1;SDS_P2;PMS_P1;PMS_P2;Temp;Humidity;BMP_temperature;BMP_pressure;BME280_temperature;BME280_humidity;BME280_pressure;Samples;Min_cycle;Max_cycle;Signal;HPM_P1;HPM_P2
2022/09/14 00:01:15;;;;;;;1999.90;999.90;;;;;;;-144.65;100.00;64500.88;5011315;28;20482;-76
2022/09/14 00:03:41;;;;;;;1999.90;999.90;;;;;;;-144.65;100.00;64500.88;5012292;28;20038;-77
2022/09/14 00:06:12;;;;;;;1999.90;999.90;;;;;;;-144.65;100.00;64500.88;5012333;28;20039;-77
2022/09/14 00:08:39;;;;;;;1999.90;999.90;;;;;;;-144.65;100.00;64500.88;5014699;28;20025;-77
2022/09/14 00:11:08;;;;;;;1999.90;999.90;;;;;;;-144.65;100.00;64500.88;5016014;28;20084;-76
2022/09/14 00:13:34;;;;;;;1999.90;999.90;;;;;;;-144.65;100.00;64500.88;5008969;28;20042;-77
2022/09/14 00:16:28;;;;;;;1999.90;999.90;;;;;;;-144.65;100.00;64500.88;5015179;28;20022;-76
2022/09/14 00:18:56;;;;;;;1999.90;999.90;;;;;;;-144.65;100.00;64500.88;5014653;28;20440;-77
2022/09/14 00:21:23;;;;;;;1999.90;999.90;;;;;;;-144.65;100.00;64500.88;5015665;28;20030;-77
2022/09/14 00:23:49;;;;;;;1999.90;999.90;;;;;;;-144.65;100.00;64500.88;5014989;28;20018;-78
2022/09/14 00:26:17;;;;;;;1999.90;999.90;;;;;;;-144.65;100.00;64500.88;5015024;28;20045;-77
2022/09/14 00:28:45;;;;;;;1999.90;999.90;;;;;;;-144.65;100.00;64500.88;5015018;28;20017;-77
2022/09/14 00:31:11;;;;;;;1999.90;999.90;;;;;;;-144.65;100.00;64500.88;5014914;28;20022;-77
2022/09/14 00:33:37;;;;;;;1999.90;999.90;;;;;;;-144.65;100.00;64500.88;5015628;28;20057;-77
2022/09/14 00:36:05;;;;;;;1999.90;999.90;;;;;;;-144.65;100.00;64500.88;5014734;28;20081;-77
2022/09/14 00:38:30;;;;;;;1999.90;999.90;;;;;;;-144.65;100.00;64500.88;5013853;28;20045;-77
2022/09/14 00:40:57;;;;;;;1999.90;999.90;;;;;;;-144.65;100.00;64500.88;5015835;28;20382;-77
2022/09/14 00:43:23;;;;;;;1999.90;999.90;;;;;;;-144.65;100.00;64500.88;5015635;28;20018;-77
2022/09/14 00:45:48;;;;;;;1999.90;999.90;;;;;;;-144.65;100.00;64500.88;5015766;28;20029;-76
2022/09/14 00:48:14;;;;;;;1999.90;999.90;;;;;;;-144.65;100.00;64500.88;5015878;28;20014;-77
2022/09/14 00:50:39;;;;;;;1999.90;999.90;;;;;;;-144.65;100.00;64500.88;5016458;28;20106;-75
2022/09/14 00:53:05;;;;;;;1999.90;999.90;;;;;;;-144.65;100.00;64500.88;5017771;28;20030;-76
2022/09/14 00:55:31;;;;;;;1999.90;999.90;;;;;;;-144.65;100.00;64500.88;5021084;28;20029;-76
2022/09/14 00:57:57;;;;;;;1999.90;999.90;;;;;;;-144.65;100.00;64500.88;5020340;28;20018;-76
2022/09/14 01:00:25;;;;;;;1999.90;999.90;;;;;;;-144.65;100.00;64500.88;5025369;28;20032;-77
2022/09/14 01:02:51;;;;;;;1999.90;999.90;;;;;;;-144.65;100.00;64500.88;5021592;28;20076;-76
2022/09/14 01:05:17;;;;;;;1999.90;999.90;;;;;;;-144.65;100.00;64500.88;5021883;28;20421;-78
2022/09/14 01:08:18;;;;;;;1999.90;999.90;;;;;;;-144.65;100.00;64500.88;5016740;28;20534;-76
2022/09/14 01:10:56;;;;;;;1999.90;999.90;;;;;;;-144.65;100.00;64500.88;5013737;28;20080;-77
2022/09/14 01:13:49;;;;;;;1999.90;999.90;;;;;;;-144.65;100.00;64500.88;4996982;28;20037;-77
2022/09/14 01:16:31;;;;;;;1999.90;999.90;;;;;;;-144.65;100.00;64500.88;5014842;28;20061;-77
2022/09/14 01:19:00;;;;;;;1999.90;999.90;;;;;;;-144.65;100.00;64500.88;5014312;28;20372;-77
2022/09/14 01:21:31;;;;;;;1999.90;999.90;;;;;;;-144.65;100.00;64500.88;5015297;28;20121;-77
2022/09/14 01:24:15;;;;;;;1999.90;999.90;;;;;;;-144.65;100.00;64500.88;5015092;28;20029;-78
2022/09/14 01:27:18;;;;;;;1999.90;999.90;;;;;;;-144.65;100.00;64500.88;5014896;28;20479;-76
2022/09/14 01:29:49;;;;;;;1999.90;999.90;;;;;;;-144.65;100.00;64500.88;4996632;28;20471;-77
2022/09/14 01:32:33;;;;;;;1999.90;999.90;;;;;;;-144.65;100.00;64500.88;5014157;28;20091;-77
2022/09/14 01:35:16;;;;;;;1999.90;999.90;;;;;;;-144.65;100.00;64500.88;5014946;28;20128;-78
2022/09/14 01:37:59;;;;;;;1999.90;999.90;;;;;;;-144.65;100.00;64500.88;4997477;28;20037;-78
2022/09/14 01:40:33;;;;;;;1999.90;999.90;;;;;;;-144.65;100.00;64500.88;5014851;28;20600;-76
2022/09/14 01:43:23;;;;;;;1999.90;999.90;;;;;;;-144.65;100.00;64500.88;4997393;28;20030;-78
2022/09/14 01:45:52;;;;;;;1999.90;999.90;;;;;;;-144.65;100.00;64500.88;5014586;28;20117;-77
2022/09/14 01:48:23;;;;;;;1999.90;999.90;;;;;;;-144.65;100.00;64500.88;4996684;28;20097;-76
2022/09/14 01:50:54;;;;;;;1999.90;999.90;;;;;;;-144.65;100.00;64500.88;5014283;28;20030;-77
2022/09/14 01:53:29;;;;;;;1999.90;999.90;;;;;;;-144.65;100.00;64500.88;5014491;28;20072;-75
2022/09/14 01:56:01;;;;;;;1999.90;999.90;;;;;;;-144.65;100.00;64500.88;5014540;28;20030;-77
2022/09/14 01:58:59;;;;;;;1999.90;999.90;;;;;;;-144.65;100.00;64500.88;5014037;28;20018;-77
2022/09/14 02:01:33;;;;;;;1999.90;999.90;;;;;;;-144.65;100.00;64500.88;4983602;28;20053;-77
2022/09/14 02:04:05;;;;;;;1999.90;999.90;;;;;;;-144.65;100.00;64500.88;5014215;28;20084;-77
2022/09/14 02:06:44;;;;;;;1999.90;999.90;;;;;;;-144.65;100.00;64500.88;5014151;28;20028;-78
2022/09/14 02:09:12;;;;;;;1999.90;999.90;;;;;;;-144.65;100.00;64500.88;5014302;28;20037;-77
2022/09/14 02:11:39;;;;;;;1999.90;999.90;;;;;;;-144.65;100.00;64500.88;5014075;28;20026;-77
2022/09/14 02:14:04;;;;;;;1999.90;999.90;;;;;;;-144.65;100.00;64500.88;5014250;28;20041;-77
2022/09/14 02:16:30;;;;;;;1999.90;999.90;;;;;;;-144.65;100.00;64500.88;5013892;28;20512;-77
2022/09/14 02:18:57;;;;;;;1999.90;999.90;;;;;;;-144.65;100.00;64500.88;5013779;28;20064;-78
2022/09/14 02:21:26;;;;;;;1999.90;999.90;;;;;;;-144.65;100.00;64500.88;5014270;28;20036;-77
2022/09/14 02:23:52;;;;;;;1999.90;999.90;;;;;;;-144.65;100.00;64500.88;5013789;28;20112;-77
2022/09/14 02:26:20;;;;;;;1999.90;999.90;;;;;;;-144.65;100.00;64500.88;5013948;28;20109;-78
2022/09/14 02:28:45;;;;;;;1999.90;999.90;;;;;;;-144.65;100.00;64500.88;4995826;28;20108;-78
2022/09/14 02:31:29;;;;;;;1999.90;999.90;;;;;;;-144.65;100.00;64500.88;5012855;28;20049;-77
2022/09/14 02:33:55;;;;;;;1999.90;999.90;;;;;;;-144.65;100.00;64500.88;5013610;28;20044;-76
2022/09/14 02:36:39;;;;;;;1999.90;999.90;;;;;;;-144.65;100.00;64500.88;5013580;28;20045;-77
2022/09/14 02:39:22;;;;;;;1999.90;999.90;;;;;;;-144.65;100.00;64500.88;5013084;28;20286;-77
2022/09/14 02:42:06;;;;;;;1999.90;999.90;;;;;;;-144.65;100.00;64500.88;5013346;28;20394;-77
2022/09/14 02:44:39;;;;;;;1999.90;999.90;;;;;;;-144.65;100.00;64500.88;5013652;28;20029;-78
2022/09/14 02:47:19;;;;;;;1999.90;999.90;;;;;;;-144.65;100.00;64500.88;5013587;28;20025;-77
2022/09/14 02:50:15;;;;;;;1999.90;999.90;;;;;;;-144.65;100.00;64500.88;5013065;28;20104;-77
2022/09/14 02:52:47;;;;;;;1999.90;999.90;;;;;;;-144.65;100.00;64500.88;5013531;28;20036;-78
2022/09/14 02:55:17;;;;;;;1999.90;999.90;;;;;;;-144.65;100.00;64500.88;5016950;28;20038;-81
2022/09/14 02:58:08;;;;;;;1999.90;999.90;;;;;;;-144.65;100.00;64500.88;5014135;28;20064;-77
2022/09/14 03:00:42;;;;;;;1999.90;999.90;;;;;;;-144.65;100.00;64500.88;5013076;28;20105;-77
2022/09/14 03:03:09;;;;;;;1999.90;999.90;;;;;;;-144.65;100.00;64500.88;5013215;28;20438;-77
2022/09/14 03:05:35;;;;;;;1999.90;999.90;;;;;;;-144.65;100.00;64500.88;5013222;28;20029;-76
2022/09/14 03:08:02;;;;;;;1999.90;999.90;;;;;;;-144.65;100.00;64500.88;5013084;28;20022;-77
2022/09/14 03:10:28;;;;;;;1999.90;999.90;;;;;;;-144.65;100.00;64500.88;5013371;28;20022;-78
2022/09/14 03:12:54;;;;;;;1999.90;999.90;;;;;;;-144.65;100.00;64500.88;5012579;28;20030;-77
2022/09/14 03:15:19;;;;;;;1999.90;999.90;;;;;;;-144.65;100.00;64500.88;5012866;28;20387;-77
2022/09/14 03:17:46;;;;;;;1999.90;999.90;;;;;;;-144.65;100.00;64500.88;5013392;28;20029;-76
2022/09/14 03:20:16;;;;;;;1999.90;999.90;;;;;;;-144.65;100.00;64500.88;5012866;28;20093;-76
2022/09/14 03:22:41;;;;;;;1999.90;999.90;;;;;;;-144.65;100.00;64500.88;5013877;28;20168;-78
2022/09/14 03:25:08;;;;;;;1999.90;999.90;;;;;;;-144.65;100.00;64500.88;5013297;28;20066;-77
2022/09/14 03:27:33;;;;;;;1999.90;999.90;;;;;;;-144.65;100.00;64500.88;5013249;28;20395;-77
2022/09/14 03:29:58;;;;;;;1999.90;999.90;;;;;;;-144.65;100.00;64500.88;5013218;28;20022;-77
2022/09/14 03:32:23;;;;;;;1999.90;999.90;;;;;;;-144.65;100.00;64500.88;5012643;28;20030;-77
2022/09/14 03:34:49;;;;;;;1999.90;999.90;;;;;;;-144.65;100.00;64500.88;5012539;28;20077;-77
2022/09/14 03:37:14;;;;;;;1999.90;999.90;;;;;;;-144.65;100.00;64500.88;5013032;28;20534;-77
2022/09/14 03:39:40;;;;;;;1999.90;999.90;;;;;;;-144.65;100.00;64500.88;5012758;28;20033;-77
2022/09/14 03:42:05;;;;;;;1999.90;999.90;;;;;;;-144.65;100.00;64500.88;5012569;28;20029;-77
2022/09/14 03:44:30;;;;;;;1999.90;999.90;;;;;;;-144.65;100.00;64500.88;5012964;28;20109;-77
2022/09/14 03:46:56;;;;;;;1999.90;999.90;;;;;;;-144.65;100.00;64500.88;5012589;28;20030;-78
2022/09/14 03:49:21;;;;;;;1999.90;999.90;;;;;;;-144.65;100.00;64500.88;5013439;28;20387;-76
2022/09/14 03:51:46;;;;;;;1999.90;999.90;;;;;;;-144.65;100.00;64500.88;5013039;28;20041;-77
2022/09/14 03:54:12;;;;;;;1999.90;999.90;;;;;;;-144.65;100.00;64500.88;5012404;28;20041;-77
2022/09/14 03:56:37;;;;;;;1999.90;999.90;;;;;;;-144.65;100.00;64500.88;5012603;28;20068;-78
2022/09/14 03:59:02;;;;;;;1999.90;999.90;;;;;;;-144.65;100.00;64500.88;5012813;28;20031;-77
2022/09/14 04:01:28;;;;;;;1999.90;999.90;;;;;;;-144.65;100.00;64500.88;5013085;28;20010;-77
2022/09/14 04:03:53;;;;;;;1999.90;999.90;;;;;;;-144.65;100.00;64500.88;5012969;28;20471;-77
2022/09/14 04:06:18;;;;;;;1999.90;999.90;;;;;;;-144.65;100.00;64500.88;5012995;28;20024;-78
2022/09/14 04:08:45;;;;;;;1999.90;999.90;;;;;;;-144.65;100.00;64500.88;4994421;28;20029;-76
2022/09/14 04:11:30;;;;;;;1999.90;999.90;;;;;;;-144.65;100.00;64500.88;5013186;28;20433;-76
2022/09/14 04:14:00;;;;;;;1999.90;999.90;;;;;;;-144.65;100.00;64500.88;5012098;28;20038;-78
2022/09/14 04:16:26;;;;;;;1999.90;999.90;;;;;;;-144.65;100.00;64500.88;5013580;28;20033;-77
2022/09/14 04:18:52;;;;;;;1999.90;999.90;;;;;;;-144.65;100.00;64500.88;5012644;28;20053;-77
2022/09/14 04:21:21;;;;;;;1999.90;999.90;;;;;;;-144.65;100.00;64500.88;5013267;28;20029;-78
2022/09/14 04:23:47;;;;;;;1999.90;999.90;;;;;;;-144.65;100.00;64500.88;5012168;28;20087;-77
2022/09/14 04:26:16;;;;;;;1999.90;999.90;;;;;;;-144.65;100.00;64500.88;5012397;28;20140;-77
2022/09/14 04:28:42;;;;;;;1999.90;999.90;;;;;;;-144.65;100.00;64500.88;5012478;28;20108;-77
2022/09/14 04:31:09;;;;;;;1999.90;999.90;;;;;;;-144.65;100.00;64500.88;5011928;28;20101;-79
2022/09/14 04:33:36;;;;;;;1999.90;999.90;;;;;;;-144.65;100.00;64500.88;5012145;28;20038;-78
2022/09/14 04:36:21;;;;;;;1999.90;999.90;;;;;;;-144.65;100.00;64500.88;5012017;28;20042;-77
2022/09/14 04:38:52;;;;;;;1999.90;999.90;;;;;;;-144.65;100.00;64500.88;5012534;28;20108;-78
2022/09/14 04:41:21;;;;;;;1999.90;999.90;;;;;;;-144.65;100.00;64500.88;4994884;28;20025;-78
2022/09/14 04:43:52;;;;;;;1999.90;999.90;;;;;;;-144.65;100.00;64500.88;5014935;28;20034;-79
2022/09/14 04:46:26;;;;;;;1999.90;999.90;;;;;;;-144.65;100.00;64500.88;5021626;28;20109;-78
2022/09/14 04:48:51;;;;;;;1999.90;999.90;;;;;;;-144.65;100.00;64500.88;5013175;28;20057;-78
2022/09/14 04:51:22;;;;;;;1999.90;999.90;;;;;;;-144.65;100.00;64500.88;5012982;28;20069;-77
2022/09/14 04:53:50;;;;;;;1999.90;999.90;;;;;;;-144.65;100.00;64500.88;5016272;28;20030;-77
2022/09/14 04:56:17;;;;;;;1999.90;999.90;;;;;;;-144.65;100.00;64500.88;5017254;28;20034;-78
2022/09/14 04:58:47;;;;;;;1999.90;999.90;;;;;;;-144.65;100.00;64500.88;5017899;28;20026;-76
2022/09/14 05:01:17;;;;;;;1999.90;999.90;;;;;;;-144.65;100.00;64500.88;5015666;28;20034;-78
2022/09/14 05:03:43;;;;;;;1999.90;999.90;;;;;;;-144.65;100.00;64500.88;5019869;28;20022;-82
2022/09/14 05:06:10;;;;;;;1999.90;999.90;;;;;;;-144.65;100.00;64500.88;5028263;28;20022;-82
2022/09/14 05:08:37;;;;;;;1999.90;999.90;;;;;;;-144.65;100.00;64500.88;5040501;28;20022;-79
2022/09/14 05:11:04;;;;;;;1999.90;999.90;;;;;;;-144.65;100.00;64500.88;5037964;28;20026;-89
2022/09/14 05:13:29;;;;;;;1999.90;999.90;;;;;;;-144.65;100.00;64500.88;5030139;28;20018;-88
2022/09/14 05:16:29;;;;;;;1999.90;999.90;;;;;;;-144.65;100.00;64500.88;5028248;28;20040;-88
2022/09/14 05:18:56;;;;;;;1999.90;999.90;;;;;;;-144.65;100.00;64500.88;5008703;28;20042;-86
2022/09/14 05:21:23;;;;;;;1999.90;999.90;;;;;;;-144.65;100.00;64500.88;5024879;28;20069;-81
2022/09/14 05:24:00;;;;;;;1999.90;999.90;;;;;;;-144.65;100.00;64500.88;5015763;28;20013;-76
2022/09/14 05:26:27;;;;;;;1999.90;999.90;;;;;;;-144.65;100.00;64500.88;5014323;28;20061;-73
2022/09/14 05:28:54;;;;;;;1999.90;999.90;;;;;;;-144.65;100.00;64500.88;5013088;28;20049;-74
2022/09/14 05:31:22;;;;;;;1999.90;999.90;;;;;;;-144.65;100.00;64500.88;5018475;28;20036;-73
2022/09/14 05:33:49;;;;;;;1999.90;999.90;;;;;;;-144.65;100.00;64500.88;5023239;28;20034;-75
2022/09/14 05:36:15;;;;;;;1999.90;999.90;;;;;;;-144.65;100.00;64500.88;5022832;28;20883;-75
2022/09/14 05:38:40;;;;;;;1999.90;999.90;;;;;;;-144.65;100.00;64500.88;5013643;28;20122;-74
2022/09/14 05:41:08;;;;;;;1999.90;999.90;;;;;;;-144.65;100.00;64500.88;5017299;28;20067;-74
2022/09/14 05:43:33;;;;;;;1999.90;999.90;;;;;;;-144.65;100.00;64500.88;5023949;28;20032;-74
2022/09/14 05:46:06;;;;;;;1999.90;999.90;;;;;;;-144.65;100.00;64500.88;5019176;28;20029;-72
2022/09/14 05:48:33;;;;;;;1999.90;999.90;;;;;;;-144.65;100.00;64500.88;5015946;28;20053;-73
2022/09/14 05:51:21;;;;;;;1999.90;999.90;;;;;;;-144.65;100.00;64500.88;5017401;28;20014;-73
2022/09/14 05:53:48;;;;;;;1999.90;999.90;;;;;;;-144.65;100.00;64500.88;5018053;28;20128;-74
2022/09/14 05:56:14;;;;;;;1999.90;999.90;;;;;;;-144.65;100.00;64500.88;5013642;28;20489;-73
2022/09/14 05:58:41;;;;;;;1999.90;999.90;;;;;;;-144.65;100.00;64500.88;5025631;28;20049;-72
2022/09/14 06:01:08;;;;;;;1999.90;999.90;;;;;;;-144.65;100.00;64500.88;5027336;28;20032;-73
2022/09/14 06:03:34;;;;;;;1999.90;999.90;;;;;;;-144.65;100.00;64500.88;5017198;28;20040;-76
2022/09/14 06:05:59;;;;;;;1999.90;999.90;;;;;;;-144.65;100.00;64500.88;5016922;28;20029;-74
2022/09/14 06:08:25;;;;;;;1999.90;999.90;;;;;;;-144.65;100.00;64500.88;5020698;28;20108;-75
2022/09/14 06:10:50;;;;;;;1999.90;999.90;;;;;;;-144.65;100.00;64500.88;5021592;28;20437;-76
2022/09/14 06:13:16;;;;;;;1999.90;999.90;;;;;;;-144.65;100.00;64500.88;5019564;28;20029;-76
2022/09/14 06:15:41;;;;;;;1999.90;999.90;;;;;;;-144.65;100.00;64500.88;5021033;28;20694;-74
2022/09/14 06:18:06;;;;;;;1999.90;999.90;;;;;;;-144.65;100.00;64500.88;5020801;28;20033;-73
2022/09/14 06:20:32;;;;;;;1999.90;999.90;;;;;;;-144.65;100.00;64500.88;5020460;28;20122;-74
2022/09/14 06:22:57;;;;;;;1999.90;999.90;;;;;;;-144.65;100.00;64500.88;5020275;28;20362;-74
2022/09/14 06:25:22;;;;;;;1999.90;999.90;;;;;;;-144.65;100.00;64500.88;5019573;28;20461;-73
2022/09/14 06:27:48;;;;;;;1999.90;999.90;;;;;;;-144.65;100.00;64500.88;5018548;28;20080;-73
2022/09/14 06:30:15;;;;;;;1999.90;999.90;;;;;;;-144.65;100.00;64500.88;5012688;28;20524;-74
2022/09/14 06:32:40;;;;;;;1999.90;999.90;;;;;;;-144.65;100.00;64500.88;5021744;28;20018;-75
2022/09/14 06:35:06;;;;;;;1999.90;999.90;;;;;;;-144.65;100.00;64500.88;5014905;28;20056;-74
2022/09/14 06:37:31;;;;;;;1999.90;999.90;;;;;;;-144.65;100.00;64500.88;5018603;28;20482;-74
2022/09/14 06:39:57;;;;;;;1999.90;999.90;;;;;;;-144.65;100.00;64500.88;5019743;28;20009;-74
2022/09/14 06:42:22;;;;;;;1999.90;999.90;;;;;;;-144.65;100.00;64500.88;5020564;28;20030;-74
2022/09/14 06:44:47;;;;;;;1999.90;999.90;;;;;;;-144.65;100.00;64500.88;5023440;28;20033;-74
2022/09/14 06:47:13;;;;;;;1999.90;999.90;;;;;;;-144.65;100.00;64500.88;5019710;28;20457;-74
2022/09/14 06:49:38;;;;;;;1999.90;999.90;;;;;;;-144.65;100.00;64500.88;5019333;28;21169;-74
2022/09/14 06:52:03;;;;;;;1999.90;999.90;;;;;;;-144.65;100.00;64500.88;5020332;28;20116;-74
2022/09/14 06:54:29;;;;;;;1999.90;999.90;;;;;;;-144.65;100.00;64500.88;5020760;28;20033;-75
2022/09/14 06:56:54;;;;;;;1999.90;999.90;;;;;;;-144.65;100.00;64500.88;5019033;28;20018;-73
2022/09/14 06:59:19;;;;;;;1999.90;999.90;;;;;;;-144.65;100.00;64500.88;5020298;28;20057;-74
2022/09/14 07:01:46;;;;;;;1999.90;999.90;;;;;;;-144.65;100.00;64500.88;5002567;28;20029;-74
2022/09/14 07:04:11;;;;;;;1999.90;999.90;;;;;;;-144.65;100.00;64500.88;5021108;28;20437;-74
2022/09/14 07:06:48;;;;;;;1999.90;999.90;;;;;;;-144.65;100.00;64500.88;5014697;28;20022;-74
2022/09/14 07:09:15;;;;;;;1999.90;999.90;;;;;;;-144.65;100.00;64500.88;5019067;28;20038;-74
2022/09/14 07:11:40;;;;;;;1999.90;999.90;;;;;;;-144.65;100.00;64500.88;5023783;28;20026;-77
2022/09/14 07:14:07;;;;;;;1999.90;999.90;;;;;;;-144.65;100.00;64500.88;5021463;28;20080;-74
2022/09/14 07:16:34;;;;;;;1999.90;999.90;;;;;;;-144.65;100.00;64500.88;5011024;28;20033;-74
2022/09/14 07:19:02;;;;;;;1999.90;999.90;;;;;;;-144.65;100.00;64500.88;5010998;28;20048;-73
2022/09/14 07:21:28;;;;;;;1999.90;999.90;;;;;;;-144.65;100.00;64500.88;5013797;28;20029;-75
2022/09/14 07:23:57;;;;;;;1999.90;999.90;;;;;;;-144.65;100.00;64500.88;5015598;28;20034;-77
2022/09/14 07:26:24;;;;;;;1999.90;999.90;;;;;;;-144.65;100.00;64500.88;5012558;28;20492;-78
2022/09/14 07:28:54;;;;;;;1999.90;999.90;;;;;;;-144.65;100.00;64500.88;5011093;28;20364;-77
2022/09/14 07:31:23;;;;;;;1999.90;999.90;;;;;;;-144.65;100.00;64500.88;5022018;28;20045;-77
2022/09/14 07:33:53;;;;;;;1999.90;999.90;;;;;;;-144.65;100.00;64500.88;4996943;28;20044;-76
2022/09/14 07:36:19;;;;;;;1999.90;999.90;;;;;;;-144.65;100.00;64500.88;5012484;28;20629;-76
2022/09/14 07:38:44;;;;;;;1999.90;999.90;;;;;;;-144.65;100.00;64500.88;5011565;28;20034;-77
2022/09/14 07:41:10;;;;;;;1999.90;999.90;;;;;;;-144.65;100.00;64500.88;5012469;28;20034;-77
2022/09/14 07:43:35;;;;;;;1999.90;999.90;;;;;;;-144.65;100.00;64500.88;5013108;28;20045;-77
2022/09/14 07:46:05;;;;;;;1999.90;999.90;;;;;;;-144.65;100.00;64500.88;5012512;28;20057;-77
2022/09/14 07:48:31;;;;;;;1999.90;999.90;;;;;;;-144.65;100.00;64500.88;5012083;28;20025;-77
2022/09/14 07:51:04;;;;;;;1999.90;999.90;;;;;;;-144.65;100.00;64500.88;5012342;28;20029;-77
2022/09/14 07:53:31;;;;;;;1999.90;999.90;;;;;;;-144.65;100.00;64500.88;5012658;28;20084;-77
2022/09/14 07:55:59;;;;;;;1999.90;999.90;;;;;;;-144.65;100.00;64500.88;5012525;28;20644;-77
2022/09/14 07:58:25;;;;;;;1999.90;999.90;;;;;;;-144.65;100.00;64500.88;5012579;28;20018;-76
2022/09/14 08:00:50;;;;;;;1999.90;999.90;;;;;;;-144.65;100.00;64500.88;5011957;28;20036;-77
2022/09/14 08:03:15;;;;;;;1999.90;999.90;;;;;;;-144.65;100.00;64500.88;5012077;28;20026;-77
2022/09/14 08:05:41;;;;;;;1999.90;999.90;;;;;;;-144.65;100.00;64500.88;5011416;28;20026;-76
2022/09/14 08:08:06;;;;;;;1999.90;999.90;;;;;;;-144.65;100.00;64500.88;5011342;28;20545;-76
2022/09/14 08:10:34;;;;;;;1999.90;999.90;;;;;;;-144.65;100.00;64500.88;5011343;28;20489;-76
2022/09/14 08:13:00;;;;;;;1999.90;999.90;;;;;;;-144.65;100.00;64500.88;5011536;28;20053;-76
2022/09/14 08:15:27;;;;;;;1999.90;999.90;;;;;;;-144.65;100.00;64500.88;5012309;28;20478;-77
2022/09/14 08:17:52;;;;;;;1999.90;999.90;;;;;;;-144.65;100.00;64500.88;5012260;28;20038;-77
2022/09/14 08:20:18;;;;;;;1999.90;999.90;;;;;;;-144.65;100.00;64500.88;5012299;28;20032;-76
2022/09/14 08:22:43;;;;;;;1999.90;999.90;;;;;;;-144.65;100.00;64500.88;5012674;28;20025;-77
2022/09/14 08:25:10;;;;;;;1999.90;999.90;;;;;;;-144.65;100.00;64500.88;5014572;28;20037;-76
2022/09/14 08:27:36;;;;;;;1999.90;999.90;;;;;;;-144.65;100.00;64500.88;5016208;28;20029;-76
2022/09/14 08:30:05;;;;;;;1999.90;999.90;;;;;;;-144.65;100.00;64500.88;5024876;28;20025;-76
2022/09/14 08:32:30;;;;;;;1999.90;999.90;;;;;;;-144.65;100.00;64500.88;5022324;28;20404;-75
2022/09/14 08:34:55;;;;;;;1999.90;999.90;;;;;;;-144.65;100.00;64500.88;5018602;28;20049;-76
2022/09/14 08:37:21;;;;;;;1999.90;999.90;;;;;;;-144.65;100.00;64500.88;5023523;28;20055;-89
2022/09/14 08:39:46;;;;;;;1999.90;999.90;;;;;;;-144.65;100.00;64500.88;5032361;28;20099;-76
2022/09/14 08:42:18;;;;;;;1999.90;999.90;;;;;;;-144.65;100.00;64500.88;5025141;28;20086;-76
2022/09/14 08:44:56;;;;;;;1999.90;999.90;;;;;;;-144.65;100.00;64500.88;5020854;28;20114;-76
2022/09/14 08:47:35;;;;;;;1999.90;999.90;;;;;;;-144.65;100.00;64500.88;5024025;28;20075;-79
2022/09/14 08:50:09;;;;;;;1999.90;999.90;;;;;;;-144.65;100.00;64500.88;5020726;28;20026;-77
2022/09/14 08:52:52;;;;;;;1999.90;999.90;;;;;;;-144.65;100.00;64500.88;5021880;28;20026;-76
2022/09/14 08:55:48;;;;;;;1999.90;999.90;;;;;;;-144.65;100.00;64500.88;5020952;28;20029;-76
2022/09/14 08:58:32;;;;;;;1999.90;999.90;;;;;;;-144.65;100.00;64500.88;5019896;28;20034;-80
2022/09/14 09:01:32;;;;;;;1999.90;999.90;;;;;;;-144.65;100.00;64500.88;5015769;28;20034;-77
2022/09/14 09:04:27;;;;;;;1999.90;999.90;;;;;;;-144.65;100.00;64500.88;5028518;28;20025;-77
2022/09/14 09:06:53;;;;;;;;;;;;;;;-144.65;100.00;64500.88;5051510;28;20026;-75
2022/09/14 09:09:21;;;;;;;1999.90;999.90;;;;;;;-144.65;100.00;64500.88;5049377;28;19953;-80
2022/09/14 09:11:50;;;;;;;1999.90;999.90;;;;;;;-144.65;100.00;64500.88;5047943;28;20026;-78
2022/09/14 09:14:39;;;;;;;1999.90;999.90;;;;;;;-144.65;100.00;64500.88;5041943;28;20034;-82
2022/09/14 09:17:24;;;;;;;1999.90;999.90;;;;;;;-144.65;100.00;64500.88;5023640;28;20071;-79
2022/09/14 09:20:34;;;;;;;1999.90;999.90;;;;;;;-144.65;100.00;64500.88;5047722;28;20048;-80
2022/09/14 09:23:25;;;;;;;1999.90;999.90;;;;;;;-144.65;100.00;64500.88;5031997;28;20045;-80
2022/09/14 09:26:03;;;;;;;1999.90;999.90;;;;;;;-144.65;100.00;64500.88;5027229;28;20048;-82
2022/09/14 09:28:29;;;;;;;1999.90;999.90;;;;;;;-144.65;100.00;64500.88;5024023;28;20026;-81
2022/09/14 09:31:03;;;;;;;1999.90;999.90;;;;;;;-144.65;100.00;64500.88;5019424;28;20036;-79
2022/09/14 09:33:29;;;;;;;1999.90;999.90;;;;;;;-144.65;100.00;64500.88;5012295;28;20140;-76
2022/09/14 09:35:55;;;;;;;1999.90;999.90;;;;;;;-144.65;100.00;64500.88;5018839;28;20768;-76
2022/09/14 09:38:24;;;;;;;1999.90;999.90;;;;;;;-144.65;100.00;64500.88;5005834;28;20022;-81
2022/09/14 09:41:00;;;;;;;1999.90;999.90;;;;;;;-144.65;100.00;64500.88;5025631;28;20048;-86
2022/09/14 09:43:26;;;;;;;1999.90;999.90;;;;;;;-144.65;100.00;64500.88;5024647;28;20113;-88
2022/09/14 09:45:56;;;;;;;1999.90;999.90;;;;;;;-144.65;100.00;64500.88;5021508;28;20104;-75
2022/09/14 09:48:27;;;;;;;1999.90;999.90;;;;;;;-144.65;100.00;64500.88;5024244;28;20487;-76
2022/09/14 09:51:06;;;;;;;1999.90;999.90;;;;;;;-144.65;100.00;64500.88;5017574;28;20025;-76
2022/09/14 09:53:35;;;;;;;1999.90;999.90;;;;;;;-144.65;100.00;64500.88;5005486;28;20478;-76
2022/09/14 09:56:01;;;;;;;1999.90;999.90;;;;;;;-144.65;100.00;64500.88;5026508;28;20040;-81
2022/09/14 09:58:33;;;;;;;1999.90;999.90;;;;;;;-144.65;100.00;64500.88;5025460;28;20104;-79
2022/09/14 10:01:02;;;;;;;1999.90;999.90;;;;;;;-144.65;100.00;64500.88;5024517;28;20049;-76
2022/09/14 10:03:33;;;;;;;1999.90;999.90;;;;;;;-144.65;100.00;64500.88;5022675;28;20030;-76
2022/09/14 10:06:08;;;;;;;1999.90;999.90;;;;;;;-144.65;100.00;64500.88;5023499;28;20022;-79
2022/09/14 10:08:39;;;;;;;;;;;;;;;-144.65;100.00;64500.88;5010157;28;20040;-76
2022/09/14 10:11:05;;;;;;;1999.90;999.90;;;;;;;-144.65;100.00;64500.88;5023981;28;19922;-78
2022/09/14 10:13:36;;;;;;;1999.90;999.90;;;;;;;-144.65;100.00;64500.88;5019129;28;20018;-77
2022/09/14 10:16:06;;;;;;;1999.90;999.90;;;;;;;-144.65;100.00;64500.88;5028907;28;20463;-83
2022/09/14 10:18:31;;;;;;;1999.90;999.90;;;;;;;-144.65;100.00;64500.88;5020107;28;20041;-74
2022/09/14 10:20:57;;;;;;;1999.90;999.90;;;;;;;-144.65;100.00;64500.88;5019469;28;20057;-73
2022/09/14 10:23:25;;;;;;;1999.90;999.90;;;;;;;-144.65;100.00;64500.88;5025543;28;20033;-72
2022/09/14 10:26:12;;;;;;;1999.90;999.90;;;;;;;-144.65;100.00;64500.88;5020201;28;20406;-73
2022/09/14 10:28:41;;;;;;;1999.90;999.90;;;;;;;-144.65;100.00;64500.88;5019711;28;20025;-74
2022/09/14 10:31:18;;;;;;;1999.90;999.90;;;;;;;-144.65;100.00;64500.88;5016019;28;20049;-73
2022/09/14 10:33:45;;;;;;;1999.90;999.90;;;;;;;-144.65;100.00;64500.88;5013334;28;20436;-74
2022/09/14 10:36:23;;;;;;;1999.90;999.90;;;;;;;-144.65;100.00;64500.88;5012933;28;20461;-80
2022/09/14 10:38:57;;;;;;;1999.90;999.90;;;;;;;-144.65;100.00;64500.88;5013490;28;20045;-78
2022/09/14 10:41:30;;;;;;;1999.90;999.90;;;;;;;-144.65;100.00;64500.88;5015898;28;20475;-77
2022/09/14 10:44:18;;;;;;;1999.90;999.90;;;;;;;-144.65;100.00;64500.88;5014872;28;20022;-84
2022/09/14 10:47:11;;;;;;;1999.90;999.90;;;;;;;-144.65;100.00;64500.88;5014932;28;20479;-75